Time,TemperatureF,DewpointF,PressureIn,WindDirection,WindDirectionDegrees,WindSpeedMPH,WindSpeedGustMPH,Humidity,HourlyPrecipIn,Conditions,Clouds,dailyrainin,SoftwareType,DateUTC
2013-11-28 00:04:00,18.3,10.2,30.22,WNW,292,2.2,-999.0,70,-99.99,,,0.00,Acu-Link.com,2013-11-28 05:04:00,
2013-11-28 00:19:00,18.3,10.5,30.23,NW,315,2.2,-999.0,71,-99.99,,,0.00,Acu-Link.com,2013-11-28 05:19:00,
2013-11-28 00:34:00,18.3,10.5,30.23,West,270,2.7,-999.0,71,-99.99,,,0.00,Acu-Link.com,2013-11-28 05:34:00,
2013-11-28 00:49:00,18.5,10.7,30.22,WSW,247,2.2,-999.0,71,-99.99,,,0.00,Acu-Link.com,2013-11-28 05:49:00,
2013-11-28 01:04:00,18.7,11.2,30.23,West,270,2.2,-999.0,72,-99.99,,,0.00,Acu-Link.com,2013-11-28 06:04:00,
2013-11-28 01:19:00,19.2,11.7,30.23,West,270,2.7,-999.0,72,-99.99,,,0.00,Acu-Link.com,2013-11-28 06:19:00,
2013-11-28 01:35:00,19.2,11.7,30.24,West,270,1.7,-999.0,72,-99.99,,,0.00,Acu-Link.com,2013-11-28 06:35:00,
2013-11-28 01:50:00,19.0,11.5,30.24,WSW,247,3.2,-999.0,72,-99.99,,,0.00,Acu-Link.com,2013-11-28 06:50:00,
2013-11-28 02:05:00,18.9,11.4,30.24,WSW,247,2.2,-999.0,72,-99.99,,,0.00,Acu-Link.com,2013-11-28 07:05:00,
2013-11-28 02:21:00,18.7,11.5,30.25,WSW,247,2.2,-999.0,73,-99.99,,,0.00,Acu-Link.com,2013-11-28 07:21:00,
2013-11-28 02:36:00,18.7,11.8,30.23,South,180,2.2,-999.0,74,-99.99,,,0.00,Acu-Link.com,2013-11-28 07:36:00,
2013-11-28 02:51:00,18.5,12.2,30.25,South,180,2.2,-999.0,76,-99.99,,,0.00,Acu-Link.com,2013-11-28 07:51:00,
2013-11-28 03:06:00,17.8,11.8,30.26,SE,135,0.0,-999.0,77,-99.99,,,0.00,Acu-Link.com,2013-11-28 08:06:00,
2013-11-28 03:21:00,17.6,11.3,30.26,SW,225,2.2,-999.0,76,-99.99,,,0.00,Acu-Link.com,2013-11-28 08:21:00,
2013-11-28 03:37:00,17.4,10.9,30.26,SW,225,1.1,-999.0,75,-99.99,,,0.00,Acu-Link.com,2013-11-28 08:37:00,
2013-11-28 03:52:00,16.9,10.7,30.27,West,270,0.0,-999.0,76,-99.99,,,0.00,Acu-Link.com,2013-11-28 08:52:00,
2013-11-28 04:07:00,16.9,10.7,30.27,WSW,247,0.0,-999.0,76,-99.99,,,0.00,Acu-Link.com,2013-11-28 09:07:00,
2013-11-28 04:22:00,16.3,10.4,30.27,SSW,202,0.0,-999.0,77,-99.99,,,0.00,Acu-Link.com,2013-11-28 09:22:00,
2013-11-28 04:38:00,16.5,10.6,30.26,SSW,202,1.7,-999.0,77,-99.99,,,0.00,Acu-Link.com,2013-11-28 09:38:00,
2013-11-28 04:53:00,16.5,10.9,30.27,SW,225,0.0,-999.0,78,-99.99,,,0.00,Acu-Link.com,2013-11-28 09:53:00,
2013-11-28 05:08:00,17.2,11.0,30.28,WNW,292,1.7,-999.0,76,-99.99,,,0.00,Acu-Link.com,2013-11-28 10:08:00,
2013-11-28 05:23:00,18.0,11.7,30.28,WSW,247,2.7,-999.0,76,-99.99,,,0.00,Acu-Link.com,2013-11-28 10:23:00,
2013-11-28 05:39:00,18.5,11.9,30.28,SW,225,3.2,-999.0,75,-99.99,,,0.00,Acu-Link.com,2013-11-28 10:39:00,
2013-11-28 05:54:00,19.0,12.1,30.28,WSW,247,3.2,-999.0,74,-99.99,,,0.00,Acu-Link.com,2013-11-28 10:54:00,
2013-11-28 06:09:00,19.2,12.3,30.29,WSW,247,3.2,-999.0,74,-99.99,,,0.00,Acu-Link.com,2013-11-28 11:09:00,
2013-11-28 06:24:00,19.2,12.0,30.28,WSW,247,2.7,-999.0,73,-99.99,,,0.00,Acu-Link.com,2013-11-28 11:24:00,
2013-11-28 06:39:00,19.4,12.2,30.29,SW,225,2.7,-999.0,73,-99.99,,,0.00,Acu-Link.com,2013-11-28 11:39:00,
2013-11-28 06:54:00,19.2,12.3,30.29,SSW,202,2.7,-999.0,74,-99.99,,,0.00,Acu-Link.com,2013-11-28 11:54:00,
2013-11-28 07:09:00,18.7,12.1,30.29,South,180,2.7,-999.0,75,-99.99,,,0.00,Acu-Link.com,2013-11-28 12:09:00,
2013-11-28 07:25:00,18.3,11.7,30.29,South,180,2.2,-999.0,75,-99.99,,,0.00,Acu-Link.com,2013-11-28 12:25:00,
2013-11-28 07:40:00,17.6,11.6,30.29,SE,135,0.0,-999.0,77,-99.99,,,0.00,Acu-Link.com,2013-11-28 12:40:00,
2013-11-28 07:55:00,17.6,11.3,30.29,SW,225,2.7,-999.0,76,-99.99,,,0.00,Acu-Link.com,2013-11-28 12:55:00,
2013-11-28 08:10:00,18.1,11.2,30.29,WNW,292,2.7,-999.0,74,-99.99,,,0.00,Acu-Link.com,2013-11-28 13:10:00,
2013-11-28 08:25:00,18.7,11.8,30.29,NW,315,2.2,-999.0,74,-99.99,,,0.00,Acu-Link.com,2013-11-28 13:25:00,
2013-11-28 08:40:00,19.8,12.6,30.29,SE,135,2.7,-999.0,73,-99.99,,,0.00,Acu-Link.com,2013-11-28 13:40:00,
2013-11-28 08:55:00,21.2,13.0,30.29,SSW,202,4.2,-999.0,70,-99.99,,,0.00,Acu-Link.com,2013-11-28 13:55:00,
2013-11-28 09:10:00,22.5,13.6,30.29,South,180,4.2,-999.0,68,-99.99,,,0.00,Acu-Link.com,2013-11-28 14:10:00,
2013-11-28 09:26:00,22.8,13.8,30.29,SSW,202,2.7,-999.0,68,-99.99,,,0.00,Acu-Link.com,2013-11-28 14:26:00,
2013-11-28 09:41:00,24.1,13.4,30.30,South,180,4.7,-999.0,63,-99.99,,,0.00,Acu-Link.com,2013-11-28 14:41:00,
2013-11-28 09:56:00,25.3,13.8,30.29,SE,135,5.8,-999.0,61,-99.99,,,0.00,Acu-Link.com,2013-11-28 14:56:00,
2013-11-28 10:11:00,25.5,12.8,30.30,SSW,202,6.8,-999.0,58,-99.99,,,0.00,Acu-Link.com,2013-11-28 15:11:00,
2013-11-28 10:26:00,26.4,12.9,30.29,SW,225,6.8,-999.0,56,-99.99,,,0.00,Acu-Link.com,2013-11-28 15:26:00,
2013-11-28 10:41:00,28.0,13.9,30.29,SSE,157,7.3,-999.0,55,-99.99,,,0.00,Acu-Link.com,2013-11-28 15:41:00,
2013-11-28 10:57:00,28.2,13.3,30.27,WSW,247,8.3,-999.0,53,-99.99,,,0.00,Acu-Link.com,2013-11-28 15:57:00,
2013-11-28 11:12:00,29.1,13.7,30.27,SSW,202,5.3,-999.0,52,-99.99,,,0.00,Acu-Link.com,2013-11-28 16:12:00,
2013-11-28 11:27:00,30.7,14.7,30.25,SW,225,5.3,-999.0,51,-99.99,,,0.00,Acu-Link.com,2013-11-28 16:27:00,
2013-11-28 11:42:00,32.4,15.4,30.24,SW,225,6.3,-999.0,49,-99.99,,,0.00,Acu-Link.com,2013-11-28 16:42:00,
2013-11-28 11:57:00,31.6,14.2,30.23,SSW,202,4.7,-999.0,48,-99.99,,,0.00,Acu-Link.com,2013-11-28 16:57:00,
2013-11-28 12:12:00,32.2,14.7,30.22,West,270,6.3,-999.0,48,-99.99,,,0.00,Acu-Link.com,2013-11-28 17:12:00,
2013-11-28 12:28:00,32.4,14.4,30.22,SW,225,8.9,-999.0,47,-99.99,,,0.00,Acu-Link.com,2013-11-28 17:28:00,
2013-11-28 12:43:00,32.9,14.4,30.20,WSW,247,4.7,-999.0,46,-99.99,,,0.00,Acu-Link.com,2013-11-28 17:43:00,
2013-11-28 12:58:00,33.3,14.3,30.19,WSW,247,6.8,-999.0,45,-99.99,,,0.00,Acu-Link.com,2013-11-28 17:58:00,
2013-11-28 13:13:00,34.0,14.9,30.18,WSW,247,5.3,-999.0,45,-99.99,,,0.00,Acu-Link.com,2013-11-28 18:13:00,
2013-11-28 13:28:00,34.2,14.6,30.19,SSW,202,7.3,-999.0,44,-99.99,,,0.00,Acu-Link.com,2013-11-28 18:28:00,
2013-11-28 13:43:00,35.2,15.5,30.18,SSW,202,6.3,-999.0,44,-99.99,,,0.00,Acu-Link.com,2013-11-28 18:43:00,
2013-11-28 13:58:00,35.2,15.5,30.17,West,270,5.3,-999.0,44,-99.99,,,0.00,Acu-Link.com,2013-11-28 18:58:00,
2013-11-28 14:13:00,35.8,15.0,30.16,WSW,247,7.3,-999.0,42,-99.99,,,0.00,Acu-Link.com,2013-11-28 19:13:00,
2013-11-28 14:29:00,36.3,14.9,30.16,SSW,202,9.4,-999.0,41,-99.99,,,0.00,Acu-Link.com,2013-11-28 19:29:00,
2013-11-28 14:44:00,36.3,14.9,30.16,WSW,247,11.9,-999.0,41,-99.99,,,0.00,Acu-Link.com,2013-11-28 19:44:00,
2013-11-28 14:59:00,36.7,15.2,30.16,NNE,22,5.8,-999.0,41,-99.99,,,0.00,Acu-Link.com,2013-11-28 19:59:00,
2013-11-28 15:14:00,36.7,15.2,30.17,SSW,202,6.8,-999.0,41,-99.99,,,0.00,Acu-Link.com,2013-11-28 20:14:00,
2013-11-28 15:29:00,37.0,15.5,30.17,SSW,202,8.3,-999.0,41,-99.99,,,0.00,Acu-Link.com,2013-11-28 20:29:00,
2013-11-28 15:45:00,37.4,15.3,30.18,WSW,247,6.3,-999.0,40,-99.99,,,0.00,Acu-Link.com,2013-11-28 20:45:00,
2013-11-28 16:00:00,38.1,16.5,30.20,WSW,247,5.3,-999.0,41,-99.99,,,0.00,Acu-Link.com,2013-11-28 21:00:00,
2013-11-28 16:15:00,37.6,17.2,30.20,WSW,247,6.3,-999.0,43,-99.99,,,0.00,Acu-Link.com,2013-11-28 21:15:00,
2013-11-28 16:30:00,36.5,16.7,30.22,WSW,247,6.8,-999.0,44,-99.99,,,0.00,Acu-Link.com,2013-11-28 21:30:00,
2013-11-28 16:46:00,36.1,16.8,30.23,West,270,6.3,-999.0,45,-99.99,,,0.00,Acu-Link.com,2013-11-28 21:46:00,
2013-11-28 17:01:00,35.4,17.2,30.23,West,270,6.3,-999.0,47,-99.99,,,0.00,Acu-Link.com,2013-11-28 22:01:00,
2013-11-28 17:16:00,34.3,17.1,30.24,WSW,247,3.7,-999.0,49,-99.99,,,0.00,Acu-Link.com,2013-11-28 22:16:00,
2013-11-28 17:31:00,33.3,17.6,30.25,West,270,3.7,-999.0,52,-99.99,,,0.00,Acu-Link.com,2013-11-28 22:31:00,
2013-11-28 17:46:00,32.4,18.1,30.25,West,270,2.7,-999.0,55,-99.99,,,0.00,Acu-Link.com,2013-11-28 22:46:00,
2013-11-28 18:01:00,32.4,18.1,30.26,West,270,3.2,-999.0,55,-99.99,,,0.00,Acu-Link.com,2013-11-28 23:01:00,
2013-11-28 18:17:00,32.4,18.1,30.27,WSW,247,2.7,-999.0,55,-99.99,,,0.00,Acu-Link.com,2013-11-28 23:17:00,
2013-11-28 18:32:00,32.0,18.1,30.28,SW,225,3.7,-999.0,56,-99.99,,,0.00,Acu-Link.com,2013-11-28 23:32:00,
2013-11-28 18:47:00,31.8,17.9,30.28,WSW,247,2.2,-999.0,56,-99.99,,,0.00,Acu-Link.com,2013-11-28 23:47:00,
2013-11-28 19:02:00,31.3,17.9,30.29,West,270,2.7,-999.0,57,-99.99,,,0.00,Acu-Link.com,2013-11-29 00:02:00,
2013-11-28 19:17:00,31.1,18.1,30.30,West,270,2.2,-999.0,58,-99.99,,,0.00,Acu-Link.com,2013-11-29 00:17:00,
2013-11-28 19:32:00,30.9,17.9,30.30,WSW,247,1.7,-999.0,58,-99.99,,,0.00,Acu-Link.com,2013-11-29 00:32:00,
2013-11-28 19:48:00,30.0,17.8,30.31,SSW,202,0.0,-999.0,60,-99.99,,,0.00,Acu-Link.com,2013-11-29 00:48:00,
2013-11-28 20:03:00,29.1,17.7,30.31,SSW,202,1.7,-999.0,62,-99.99,,,0.00,Acu-Link.com,2013-11-29 01:03:00,
2013-11-28 20:18:00,28.8,17.8,30.31,South,180,1.7,-999.0,63,-99.99,,,0.00,Acu-Link.com,2013-11-29 01:18:00,
2013-11-28 20:34:00,28.2,17.6,30.32,SSW,202,1.7,-999.0,64,-99.99,,,0.00,Acu-Link.com,2013-11-29 01:34:00,
2013-11-28 20:49:00,28.0,17.8,30.32,SSW,202,0.0,-999.0,65,-99.99,,,0.00,Acu-Link.com,2013-11-29 01:49:00,
2013-11-28 21:04:00,27.3,17.1,30.33,SW,225,0.0,-999.0,65,-99.99,,,0.00,Acu-Link.com,2013-11-29 02:04:00,
2013-11-28 21:19:00,27.5,17.7,30.34,South,180,2.7,-999.0,66,-99.99,,,0.00,Acu-Link.com,2013-11-29 02:19:00,
2013-11-28 21:35:00,27.1,17.3,30.33,SW,225,0.0,-999.0,66,-99.99,,,0.00,Acu-Link.com,2013-11-29 02:35:00,
2013-11-28 21:50:00,26.6,17.1,30.34,WSW,247,0.0,-999.0,67,-99.99,,,0.00,Acu-Link.com,2013-11-29 02:50:00,
2013-11-28 22:05:00,26.8,17.7,30.35,West,270,1.7,-999.0,68,-99.99,,,0.00,Acu-Link.com,2013-11-29 03:05:00,
2013-11-28 22:20:00,27.3,17.8,30.34,West,270,2.2,-999.0,67,-99.99,,,0.00,Acu-Link.com,2013-11-29 03:20:00,
2013-11-28 22:35:00,27.3,17.8,30.35,NW,315,1.7,-999.0,67,-99.99,,,0.00,Acu-Link.com,2013-11-29 03:35:00,
2013-11-28 22:50:00,27.1,18.0,30.35,NW,315,2.2,-999.0,68,-99.99,,,0.00,Acu-Link.com,2013-11-29 03:50:00,
2013-11-28 23:06:00,27.0,17.9,30.35,NW,315,2.2,-999.0,68,-99.99,,,0.00,Acu-Link.com,2013-11-29 04:06:00,
2013-11-28 23:21:00,27.0,18.2,30.36,NW,315,2.7,-999.0,69,-99.99,,,0.00,Acu-Link.com,2013-11-29 04:21:00,
2013-11-28 23:36:00,26.8,18.0,30.37,North,0,2.7,-999.0,69,-99.99,,,0.00,Acu-Link.com,2013-11-29 04:36:00,
2013-11-28 23:51:00,26.6,17.8,30.38,NW,315,2.7,-999.0,69,-99.99,,,0.00,Acu-Link.com,2013-11-29 04:51:00,